Time;durP1;ratioP1;P1;durP2;ratioP2;P2;SDS_P1;SDS_P2;PMS_P1;PMS_P2;Temp;Humidity;BMP_temperature;BMP_pressure;BME280_temperature;BME280_humidity;BME280_pressure;Samples;Min_cycle;Max_cycle;Signal;HPM_P1;HPM_P2
2022/03/15 00:01:57;;;;;;;4.80;3.90;;;;;;;9.32;58.67;96459.47;4377714;32;20184;-61
2022/03/15 00:04:23;;;;;;;4.47;4.10;;;;;;;9.24;58.92;96458.88;4376765;32;20185;-61
2022/03/15 00:06:48;;;;;;;4.73;4.10;;;;;;;9.38;58.88;96456.56;4375412;32;20238;-60
2022/03/15 00:09:14;;;;;;;4.50;4.10;;;;;;;9.19;59.66;96453.56;4380129;32;20291;-60
2022/03/15 00:11:40;;;;;;;4.80;4.40;;;;;;;9.17;60.09;96444.28;4376188;32;20203;-61
2022/03/15 00:14:06;;;;;;;4.60;4.20;;;;;;;9.15;60.44;96451.66;4374358;32;20189;-61
2022/03/15 00:16:31;;;;;;;4.53;4.23;;;;;;;9.18;60.53;96445.88;4375923;32;20299;-61
2022/03/15 00:18:57;;;;;;;5.30;4.77;;;;;;;9.08;60.94;96440.53;4374855;32;20304;-61
2022/03/15 00:21:23;;;;;;;5.00;4.60;;;;;;;9.14;61.00;96435.03;4363701;32;20185;-61
2022/03/15 00:23:48;;;;;;;4.93;4.63;;;;;;;9.10;61.26;96444.53;4390793;32;20207;-61
2022/03/15 00:26:14;;;;;;;4.80;4.50;;;;;;;9.17;61.12;96441.63;4387788;32;23588;-60
2022/03/15 00:28:39;;;;;;;7.67;4.70;;;;;;;9.24;60.77;96447.50;4367937;32;20173;-61
2022/03/15 00:31:05;;;;;;;5.30;4.80;;;;;;;9.17;61.12;96445.06;4374217;32;20184;-60
2022/03/15 00:33:30;;;;;;;7.10;4.90;;;;;;;9.13;61.44;96445.88;4376378;32;20207;-61
2022/03/15 00:35:59;;;;;;;4.90;4.47;;;;;;;8.95;61.79;96439.91;4374596;32;20266;-59
2022/03/15 00:38:25;;;;;;;5.77;5.20;;;;;;;9.07;61.79;96444.22;4368796;32;20189;-60
2022/03/15 00:40:51;;;;;;;6.47;5.10;;;;;;;8.97;62.20;96444.94;4373256;32;20318;-60
2022/03/15 00:43:16;;;;;;;5.43;4.83;;;;;;;8.88;62.44;96447.28;4358767;32;20178;-60
2022/03/15 00:45:41;;;;;;;7.43;4.97;;;;;;;8.90;62.67;96450.47;4373126;32;20287;-61
2022/03/15 00:48:07;;;;;;;5.97;5.00;;;;;;;8.87;62.78;96453.62;4372925;32;20255;-61
2022/03/15 00:50:36;;;;;;;5.50;5.03;;;;;;;8.62;63.55;96448.16;4372654;32;20189;-61
2022/03/15 00:53:03;;;;;;;5.83;5.10;;;;;;;8.46;64.12;96441.13;4363447;32;20176;-61
2022/03/15 00:55:28;;;;;;;6.60;5.03;;;;;;;8.63;63.69;96441.00;4372022;32;20310;-60
2022/03/15 00:57:53;;;;;;;5.20;4.80;;;;;;;8.66;63.21;96435.22;4378134;32;20280;-61
2022/03/15 01:00:21;;;;;;;5.50;5.00;;;;;;;8.71;63.26;96428.13;4380115;32;20201;-61
2022/03/15 01:02:48;;;;;;;5.83;5.30;;;;;;;8.59;63.58;96427.47;4375484;32;20207;-61
2022/03/15 01:05:13;;;;;;;5.53;5.03;;;;;;;8.58;63.60;96431.97;4359633;32;20274;-61
2022/03/15 01:07:39;;;;;;;6.20;5.17;;;;;;;8.70;63.47;96428.38;4381465;32;20375;-61
2022/03/15 01:10:06;;;;;;;6.73;5.23;;;;;;;8.63;63.79;96428.59;4373101;32;20184;-61
2022/03/15 01:12:32;;;;;;;4.90;4.60;;;;;;;8.40;64.67;96423.63;4360487;32;20334;-61
2022/03/15 01:14:57;;;;;;;6.13;5.00;;;;;;;8.13;65.42;96424.41;4375401;32;20272;-59
2022/03/15 01:17:23;;;;;;;4.87;4.50;;;;;;;8.16;65.24;96423.12;4374929;32;20205;-61
2022/03/15 01:19:49;;;;;;;5.40;5.00;;;;;;;8.20;65.03;96425.03;4385055;32;20192;-61
2022/03/15 01:22:14;;;;;;;5.80;5.03;;;;;;;8.19;64.99;96417.34;4375688;32;20276;-60
2022/03/15 01:24:40;;;;;;;5.07;4.67;;;;;;;8.20;64.95;96427.66;4378118;32;20214;-61
2022/03/15 01:27:05;;;;;;;6.17;4.80;;;;;;;7.98;65.47;96429.56;4371881;32;20238;-61
2022/03/15 01:29:31;;;;;;;5.50;5.00;;;;;;;8.08;65.25;96423.59;4387752;32;20269;-61
2022/03/15 01:31:59;;;;;;;5.13;4.73;;;;;;;8.29;64.38;96417.44;4374767;32;20264;-61
2022/03/15 01:34:25;;;;;;;7.80;5.23;;;;;;;8.34;63.94;96419.34;4392825;32;20272;-60
2022/03/15 01:36:50;;;;;;;5.30;4.87;;;;;;;8.27;64.11;96425.63;4378123;32;20273;-60
2022/03/15 01:39:16;;;;;;;5.23;4.80;;;;;;;8.25;64.52;96421.63;4374686;32;20406;-60
2022/03/15 01:41:44;;;;;;;8.30;4.97;;;;;;;8.31;64.18;96410.06;4376259;32;20180;-60
2022/03/15 01:44:20;;;;;;;6.90;5.07;;;;;;;8.04;65.27;96407.44;4361553;32;20194;-60
2022/03/15 01:46:46;;;;;;;5.77;5.17;;;;;;;8.12;65.15;96404.31;4361619;32;20372;-61
2022/03/15 01:49:12;;;;;;;5.10;4.80;;;;;;;8.24;64.72;96404.19;4352161;32;20295;-61
2022/03/15 01:51:41;;;;;;;5.03;4.63;;;;;;;8.06;65.50;96412.47;4382947;32;20292;-61
2022/03/15 01:54:11;;;;;;;5.47;5.07;;;;;;;7.94;65.83;96399.38;4361697;32;20307;-60
2022/03/15 01:56:40;;;;;;;5.67;4.40;;;;;;;7.85;66.07;96401.69;4387434;32;20316;-61
2022/03/15 01:59:07;;;;;;;5.87;5.00;;;;;;;7.64;67.03;96405.16;4386374;32;20276;-61
2022/03/15 02:01:33;;;;;;;5.23;4.73;;;;;;;7.77;66.86;96403.97;4390245;32;20273;-60
2022/03/15 02:03:59;;;;;;;5.27;4.63;;;;;;;7.65;67.37;96400.69;4375650;32;20281;-59
2022/03/15 02:06:24;;;;;;;7.20;5.17;;;;;;;7.71;67.23;96392.56;4378581;32;20185;-61
2022/03/15 02:08:50;;;;;;;5.23;4.77;;;;;;;7.79;66.95;96392.12;4376583;32;20284;-60
2022/03/15 02:11:15;;;;;;;5.00;4.60;;;;;;;7.97;66.06;96377.75;4364175;32;20322;-60
2022/03/15 02:13:41;;;;;;;6.27;5.07;;;;;;;8.04;65.71;96369.62;4387989;32;20185;-61
2022/03/15 02:16:06;;;;;;;4.70;4.40;;;;;;;7.85;66.32;96370.00;4381635;32;20228;-61
2022/03/15 02:18:31;;;;;;;5.33;4.90;;;;;;;8.04;65.90;96367.78;4377844;32;20177;-61
2022/03/15 02:20:57;;;;;;;6.70;4.67;;;;;;;8.13;65.57;96376.84;4376040;32;20177;-61
2022/03/15 02:23:22;;;;;;;5.33;4.63;;;;;;;8.07;66.25;96361.22;4367489;32;20192;-61
2022/03/15 02:25:47;;;;;;;4.87;4.57;;;;;;;7.98;66.59;96362.72;4376004;32;20196;-61
2022/03/15 02:28:13;;;;;;;5.07;4.67;;;;;;;8.04;66.20;96357.22;4375652;32;20212;-61
2022/03/15 02:30:39;;;;;;;5.40;5.00;;;;;;;8.11;65.90;96360.44;4375921;32;20188;-61
2022/03/15 02:33:04;;;;;;;4.93;4.53;;;;;;;8.13;65.55;96358.34;4368518;32;20387;-60
2022/03/15 02:35:29;;;;;;;4.80;4.50;;;;;;;8.14;66.07;96359.94;4368145;32;20225;-61
2022/03/15 02:37:54;;;;;;;4.90;4.33;;;;;;;8.16;65.89;96355.19;4389144;32;20184;-61
2022/03/15 02:40:20;;;;;;;5.37;4.93;;;;;;;8.11;65.97;96355.16;4389402;32;20236;-61
2022/03/15 02:42:45;;;;;;;5.33;4.93;;;;;;;8.05;66.27;96372.03;4377133;32;20299;-61
2022/03/15 02:45:10;;;;;;;5.53;5.10;;;;;;;7.83;66.80;96358.88;4377470;32;20189;-61
2022/03/15 02:47:37;;;;;;;5.50;5.00;;;;;;;7.86;66.91;96363.66;4387802;32;20229;-60
2022/03/15 02:50:03;;;;;;;8.10;4.80;;;;;;;7.94;66.53;96362.41;4377849;32;20189;-60
2022/03/15 02:52:28;;;;;;;5.77;5.27;;;;;;;7.93;66.39;96364.25;4386590;32;20303;-61
2022/03/15 02:54:55;;;;;;;6.03;5.43;;;;;;;7.89;66.50;96351.81;4378418;32;20196;-60
2022/03/15 02:57:24;;;;;;;6.23;5.07;;;;;;;7.94;66.39;96352.63;4377232;32;20176;-61
2022/03/15 02:59:50;;;;;;;6.13;5.13;;;;;;;7.86;66.95;96339.91;4374425;32;20284;-61
2022/03/15 03:02:16;;;;;;;5.83;5.33;;;;;;;7.92;66.60;96338.06;4376974;32;20374;-60
2022/03/15 03:04:42;;;;;;;5.73;5.13;;;;;;;7.85;66.81;96337.50;4380192;32;20184;-60
2022/03/15 03:07:07;;;;;;;5.63;5.13;;;;;;;7.93;66.54;96334.37;4387344;32;20228;-60
2022/03/15 03:09:33;;;;;;;5.70;5.20;;;;;;;8.03;66.08;96328.41;4373640;32;20308;-60
2022/03/15 03:11:58;;;;;;;5.07;4.77;;;;;;;7.92;66.26;96332.78;4370483;32;20228;-61
2022/03/15 03:14:24;;;;;;;7.97;5.30;;;;;;;8.01;66.04;96325.22;4377402;32;20219;-60
2022/03/15 03:16:50;;;;;;;5.10;4.60;;;;;;;8.07;65.82;96324.22;4362358;32;20211;-61
2022/03/15 03:19:16;;;;;;;5.57;5.03;;;;;;;7.99;65.84;96324.66;4368380;32;20275;-60
2022/03/15 03:21:42;;;;;;;5.80;5.30;;;;;;;8.03;65.83;96323.91;4391251;32;20242;-61
2022/03/15 03:24:09;;;;;;;6.03;5.43;;;;;;;8.20;65.30;96334.34;4378967;32;20280;-61
2022/03/15 03:26:37;;;;;;;5.90;5.33;;;;;;;8.16;65.29;96328.78;4375950;32;20276;-60
2022/03/15 03:29:12;;;;;;;5.67;5.07;;;;;;;8.18;65.23;96331.97;4376720;32;20277;-61
2022/03/15 03:31:41;;;;;;;6.27;5.03;;;;;;;7.93;65.94;96337.03;4375899;32;20316;-60
2022/03/15 03:34:08;;;;;;;5.60;5.10;;;;;;;8.01;65.80;96330.50;4378669;32;20318;-61
2022/03/15 03:36:36;;;;;;;5.43;4.93;;;;;;;8.13;65.45;96324.00;4375798;32;20261;-60
2022/03/15 03:39:03;;;;;;;5.53;5.07;;;;;;;7.88;66.39;96326.44;4362968;32;20348;-60
2022/03/15 03:41:28;;;;;;;5.50;5.00;;;;;;;8.01;66.16;96325.22;4369586;32;20268;-60
2022/03/15 03:43:53;;;;;;;5.80;5.40;;;;;;;7.95;66.08;96316.44;4381395;32;20284;-60
2022/03/15 03:46:19;;;;;;;5.13;4.80;;;;;;;8.08;65.54;96316.03;4362645;32;20188;-60
2022/03/15 03:48:45;;;;;;;5.83;5.43;;;;;;;8.13;65.31;96324.00;4375328;32;20197;-60
2022/03/15 03:51:13;;;;;;;5.60;5.20;;;;;;;8.19;65.30;96320.34;4376784;32;20200;-60
2022/03/15 03:53:39;;;;;;;5.77;5.30;;;;;;;7.95;65.81;96327.00;4373689;32;20220;-60
2022/03/15 03:56:04;;;;;;;5.70;5.27;;;;;;;8.08;65.72;96320.53;4376438;32;20280;-60
2022/03/15 03:58:30;;;;;;;5.93;5.43;;;;;;;8.20;65.22;96321.94;4368183;32;20203;-61
2022/03/15 04:00:55;;;;;;;5.63;5.13;;;;;;;8.20;65.25;96314.00;4386917;32;20196;-60
2022/03/15 04:03:22;;;;;;;6.73;5.57;;;;;;;7.98;66.11;96313.31;4385102;32;20196;-61
2022/03/15 04:05:49;;;;;;;5.53;5.03;;;;;;;8.08;65.87;96317.88;4360010;32;20185;-60
2022/03/15 04:08:14;;;;;;;5.63;5.13;;;;;;;8.06;65.88;96315.50;4374901;32;20296;-61
2022/03/15 04:10:40;;;;;;;5.83;5.40;;;;;;;8.04;65.90;96320.22;4362520;32;20281;-61
2022/03/15 04:13:07;;;;;;;5.80;5.40;;;;;;;7.94;66.32;96328.84;4372472;32;20189;-61
2022/03/15 04:15:33;;;;;;;6.20;5.70;;;;;;;7.78;66.61;96321.06;4373180;32;20210;-60
2022/03/15 04:17:59;;;;;;;6.20;5.60;;;;;;;7.89;66.45;96328.84;4380464;32;20304;-62
2022/03/15 04:20:24;;;;;;;5.63;5.23;;;;;;;7.82;66.57;96322.94;4378689;32;20294;-61
2022/03/15 04:22:49;;;;;;;6.17;5.63;;;;;;;7.71;67.00;96323.09;4386972;32;20337;-61
2022/03/15 04:25:15;;;;;;;5.50;5.10;;;;;;;7.72;66.55;96327.31;4373036;32;20204;-60
2022/03/15 04:27:40;;;;;;;5.20;4.83;;;;;;;7.69;66.95;96327.84;4362006;32;20211;-61
2022/03/15 04:30:06;;;;;;;5.67;5.27;;;;;;;7.78;66.53;96321.06;4361949;32;20184;-59
2022/03/15 04:32:32;;;;;;;5.90;5.40;;;;;;;7.72;66.55;96322.03;4389426;32;20194;-61
2022/03/15 04:34:57;;;;;;;6.03;5.60;;;;;;;7.78;66.35;96326.34;4361653;32;20221;-61
2022/03/15 04:37:26;;;;;;;6.17;5.40;;;;;;;7.69;66.61;96325.22;4376098;32;20324;-61
2022/03/15 04:39:51;;;;;;;5.97;5.47;;;;;;;7.52;67.39;96322.66;4362160;32;20173;-60
2022/03/15 04:42:17;;;;;;;5.50;5.10;;;;;;;7.54;67.29;96331.12;4358674;32;20361;-60
2022/03/15 04:44:42;;;;;;;6.27;5.77;;;;;;;7.49;67.26;96325.78;4365209;32;20189;-61
2022/03/15 04:47:08;;;;;;;5.63;5.13;;;;;;;7.48;67.00;96322.34;4371721;32;20253;-60
2022/03/15 04:49:34;;;;;;;5.30;4.80;;;;;;;7.64;66.36;96322.50;4387242;32;20195;-60
2022/03/15 04:52:00;;;;;;;6.47;5.87;;;;;;;7.52;66.87;96327.94;4388844;32;20188;-61
2022/03/15 04:54:26;;;;;;;5.93;5.43;;;;;;;7.48;67.04;96335.53;4365142;32;20281;-61
2022/03/15 04:56:51;;;;;;;6.37;5.80;;;;;;;7.37;67.44;96325.94;4361839;32;20338;-60
2022/03/15 04:59:16;;;;;;;6.40;5.70;;;;;;;7.20;67.90;96333.94;4372566;32;20268;-60
2022/03/15 05:01:42;;;;;;;5.37;4.90;;;;;;;7.11;68.39;96321.41;4377510;32;20194;-61
2022/03/15 05:04:07;;;;;;;5.53;5.00;;;;;;;7.24;67.83;96331.59;4381685;32;20193;-60
2022/03/15 05:06:33;;;;;;;5.87;5.43;;;;;;;7.31;67.84;96331.41;4362039;32;20188;-61
2022/03/15 05:08:58;;;;;;;8.83;5.53;;;;;;;7.30;67.63;96332.44;4376760;32;20251;-61
2022/03/15 05:11:25;;;;;;;5.50;5.00;;;;;;;7.14;67.92;96331.47;4382399;32;20252;-59
2022/03/15 05:13:50;;;;;;;7.47;5.30;;;;;;;7.33;67.32;96332.75;4377588;32;20200;-59
2022/03/15 05:16:18;;;;;;;5.73;5.20;;;;;;;7.43;66.70;96324.94;4371884;32;23078;-60
2022/03/15 05:18:54;;;;;;;5.67;5.27;;;;;;;7.39;66.81;96323.84;4367484;32;20189;-61
2022/03/15 05:21:24;;;;;;;5.97;5.57;;;;;;;7.55;66.60;96320.31;4373167;32;20290;-61
2022/03/15 05:23:50;;;;;;;5.90;5.30;;;;;;;7.62;66.47;96314.03;4380548;32;20292;-61
2022/03/15 05:26:17;;;;;;;6.43;5.83;;;;;;;7.47;67.10;96310.22;4359193;32;20273;-61
2022/03/15 05:28:43;;;;;;;6.20;5.60;;;;;;;7.59;67.10;96313.50;4372614;32;20177;-61
2022/03/15 05:31:09;;;;;;;8.23;6.30;;;;;;;7.61;67.03;96326.44;4387024;32;20347;-61
2022/03/15 05:33:34;;;;;;;5.90;5.40;;;;;;;7.74;66.89;96312.03;4371072;32;20350;-61
2022/03/15 05:36:00;;;;;;;6.90;6.40;;;;;;;7.80;66.83;96311.03;4383625;32;20193;-60
2022/03/15 05:38:26;;;;;;;7.00;6.27;;;;;;;7.76;67.01;96312.59;4374739;32;20216;-61
2022/03/15 05:40:51;;;;;;;7.17;6.67;;;;;;;7.89;66.73;96322.75;4376595;32;20200;-60
2022/03/15 05:43:19;;;;;;;7.90;5.90;;;;;;;7.77;67.01;96314.19;4388159;32;20348;-61
2022/03/15 05:45:44;;;;;;;6.63;6.13;;;;;;;7.63;67.95;96311.16;4390512;32;20197;-61
2022/03/15 05:48:09;;;;;;;7.90;6.53;;;;;;;7.64;68.08;96330.44;4389946;32;20276;-61
2022/03/15 05:50:35;;;;;;;8.17;6.97;;;;;;;7.67;67.65;96332.59;4378309;32;20188;-61
2022/03/15 05:53:03;;;;;;;8.30;6.73;;;;;;;7.77;67.56;96336.09;4373428;32;20203;-61
2022/03/15 05:55:28;;;;;;;7.57;6.70;;;;;;;7.92;67.17;96341.53;4372869;32;20193;-61
2022/03/15 05:57:54;;;;;;;7.87;6.33;;;;;;;7.77;67.53;96343.22;4380202;32;20291;-61
2022/03/15 06:00:20;;;;;;;6.67;5.70;;;;;;;7.72;67.45;96354.53;4377371;32;20207;-61
2022/03/15 06:02:45;;;;;;;7.40;6.33;;;;;;;7.67;67.29;96341.31;4376117;32;20193;-61
2022/03/15 06:05:11;;;;;;;6.80;6.20;;;;;;;7.57;67.49;96339.34;4380250;32;20268;-60
2022/03/15 06:07:48;;;;;;;9.37;6.67;;;;;;;7.74;67.24;96341.09;4376919;32;20192;-60
2022/03/15 06:10:15;;;;;;;7.97;6.50;;;;;;;7.92;66.02;96340.72;4359744;32;20280;-60
2022/03/15 06:12:41;;;;;;;8.47;6.90;;;;;;;8.00;65.58;96335.00;4377493;32;20286;-61
2022/03/15 06:15:07;;;;;;;10.33;6.80;;;;;;;7.89;66.05;96343.88;4376392;32;20287;-61
2022/03/15 06:17:48;;;;;;;7.50;6.70;;;;;;;7.87;66.44;96343.34;4363043;32;20293;-60
2022/03/15 06:20:17;;;;;;;7.33;6.27;;;;;;;7.90;66.16;96338.31;4376971;32;20215;-60
2022/03/15 06:22:44;;;;;;;8.10;7.30;;;;;;;7.94;65.88;96342.06;4364055;32;20323;-61
2022/03/15 06:25:09;;;;;;;8.20;7.20;;;;;;;7.88;66.33;96334.37;4377638;32;20277;-61
2022/03/15 06:27:36;;;;;;;11.83;6.23;;;;;;;7.77;66.60;96337.94;4363787;32;20371;-61
2022/03/15 06:30:04;;;;;;;9.07;6.43;;;;;;;7.92;66.09;96353.94;4375398;32;20188;-61
2022/03/15 06:32:30;;;;;;;12.53;7.00;;;;;;;7.97;66.07;96361.12;4383246;32;20276;-59
2022/03/15 06:34:55;;;;;;;10.30;6.63;;;;;;;7.74;66.69;96355.09;4382017;32;20280;-60
2022/03/15 06:37:21;;;;;;;8.60;6.07;;;;;;;7.78;66.42;96337.69;4377216;32;20291;-61
2022/03/15 06:39:46;;;;;;;7.67;6.70;;;;;;;7.73;66.49;96339.47;4373555;32;20352;-61
2022/03/15 06:42:11;;;;;;;8.63;6.47;;;;;;;7.80;66.49;96330.31;4373476;32;20191;-61
2022/03/15 06:44:41;;;;;;;10.13;6.83;;;;;;;7.82;66.77;96338.81;4376759;32;20212;-60
2022/03/15 06:47:06;;;;;;;8.40;6.37;;;;;;;7.72;66.79;96337.88;4366790;32;20214;-60
2022/03/15 06:49:32;;;;;;;8.87;6.57;;;;;;;7.90;65.87;96330.41;4389511;32;20279;-59
2022/03/15 06:51:57;;;;;;;14.37;7.03;;;;;;;7.97;65.37;96339.97;4368866;32;20208;-62
2022/03/15 06:54:23;;;;;;;12.00;6.63;;;;;;;7.93;nan;96337.03;4379898;32;20199;-60
2022/03/15 06:56:49;;;;;;;8.80;6.50;;;;;;;7.98;65.30;96337.09;4387017;32;20211;-60
2022/03/15 06:59:14;;;;;;;9.70;7.07;;;;;;;8.15;64.45;96331.66;4377286;32;20232;-60
2022/03/15 07:01:40;;;;;;;7.57;6.83;;;;;;;8.26;64.17;96328.88;4378174;32;20284;-61
2022/03/15 07:04:05;;;;;;;10.43;6.23;;;;;;;8.14;64.67;96316.84;4374289;32;20208;-61
2022/03/15 07:06:31;;;;;;;9.47;6.33;;;;;;;8.15;64.51;96316.59;4378482;32;20234;-61
2022/03/15 07:08:56;;;;;;;7.03;6.43;;;;;;;8.21;64.18;96322.75;4384246;32;20230;-60
2022/03/15 07:11:21;;;;;;;9.77;6.80;;;;;;;8.15;64.17;96327.19;4375755;32;20223;-61
2022/03/15 07:13:46;;;;;;;12.80;7.17;;;;;;;8.26;64.31;96343.94;4376187;32;20268;-61
2022/03/15 07:16:12;;;;;;;11.97;7.60;;;;;;;8.36;64.72;96369.66;4376276;32;20207;-60
2022/03/15 07:18:37;;;;;;;14.20;7.20;;;;;;;8.41;64.48;96338.78;4368574;32;20281;-59
2022/03/15 07:21:05;;;;;;;12.53;6.90;;;;;;;8.54;63.98;96358.69;4375708;32;20193;-59
2022/03/15 07:23:31;;;;;;;10.50;7.07;;;;;;;8.49;64.58;96332.22;4369749;32;20189;-60
2022/03/15 07:25:56;;;;;;;9.77;7.00;;;;;;;8.51;64.20;96359.22;4380419;32;20307;-59
2022/03/15 07:28:21;;;;;;;14.23;7.17;;;;;;;8.28;65.18;96358.50;4390032;32;20189;-59
2022/03/15 07:30:47;;;;;;;10.97;6.67;;;;;;;8.37;65.21;96355.38;4378772;32;20279;-59
2022/03/15 07:33:12;;;;;;;8.27;7.47;;;;;;;8.34;65.75;96363.81;4371823;32;20248;-60
2022/03/15 07:35:37;;;;;;;7.67;6.30;;;;;;;8.33;65.26;96363.03;4373144;32;20244;-57
2022/03/15 07:38:03;;;;;;;41.40;7.13;;;;;;;8.31;65.74;96369.59;4376584;32;20204;-56
2022/03/15 07:40:29;;;;;;;31.13;6.37;;;;;;;9.55;81.80;96353.09;4374699;32;20214;-46
2022/03/15 07:42:56;;;;;;;12.63;4.83;;;;;;;10.70;74.19;96366.72;4364720;32;20184;-56
2022/03/15 07:45:23;;;;;;;11.83;4.90;;;;;;;11.80;64.37;96352.53;4375246;32;20299;-54
2022/03/15 07:47:50;;;;;;;8.23;4.63;;;;;;;12.48;58.67;96356.03;4362704;32;20272;-55
2022/03/15 07:50:18;;;;;;;8.90;4.70;;;;;;;12.93;54.91;96354.81;4367369;32;20285;-56
2022/03/15 07:52:47;;;;;;;5.07;4.67;;;;;;;13.26;53.62;96358.50;4363718;32;20227;-56
2022/03/15 07:55:14;;;;;;;6.70;5.50;;;;;;;13.40;51.89;96358.56;4362367;32;20207;-55
2022/03/15 07:57:41;;;;;;;10.60;4.97;;;;;;;13.46;51.75;96362.00;4368693;32;20185;-55
2022/03/15 08:00:08;;;;;;;6.23;4.47;;;;;;;13.62;51.17;96353.50;4381396;32;20197;-56
2022/03/15 08:02:35;;;;;;;6.53;5.07;;;;;;;13.74;51.73;96348.53;4373349;32;20259;-58
2022/03/15 08:05:00;;;;;;;7.40;5.40;;;;;;;13.79;50.68;96355.66;4380662;32;20188;-55
2022/03/15 08:07:28;;;;;;;7.93;5.00;;;;;;;13.87;49.78;96343.56;4369020;32;20185;-58
2022/03/15 08:09:54;;;;;;;5.33;4.90;;;;;;;13.89;49.11;96344.09;4373511;32;20244;-58
2022/03/15 08:12:21;;;;;;;4.70;4.23;;;;;;;13.99;48.69;96347.38;4374394;32;20248;-58
2022/03/15 08:14:48;;;;;;;5.67;4.27;;;;;;;14.00;48.33;96350.84;4378915;32;20242;-57
2022/03/15 08:17:15;;;;;;;5.53;4.43;;;;;;;14.04;48.06;96346.53;4383363;32;20195;-58
2022/03/15 08:19:42;;;;;;;5.97;4.40;;;;;;;13.95;48.06;96348.25;4375467;32;20200;-57
2022/03/15 08:22:09;;;;;;;4.80;4.30;;;;;;;13.92;47.76;96346.19;4379085;32;20185;-58
2022/03/15 08:24:35;;;;;;;6.17;4.27;;;;;;;13.88;48.12;96340.63;4381115;32;20185;-58
2022/03/15 08:27:02;;;;;;;6.07;4.10;;;;;;;13.65;48.27;96334.28;4385600;32;20256;-58
2022/03/15 08:29:30;;;;;;;4.73;4.20;;;;;;;13.67;48.15;96331.31;4375923;32;20293;-54
2022/03/15 08:31:58;;;;;;;4.30;3.90;;;;;;;13.75;48.09;96328.78;4383825;32;20267;-58
2022/03/15 08:34:24;;;;;;;5.00;3.83;;;;;;;13.80;48.00;96329.78;4351127;32;20196;-58
2022/03/15 08:36:53;;;;;;;6.67;4.13;;;;;;;13.87;47.69;96327.56;4376008;32;20226;-58
2022/03/15 08:39:22;;;;;;;5.47;3.80;;;;;;;14.06;47.23;96323.00;4362338;32;20275;-58
2022/03/15 08:41:51;;;;;;;5.43;3.40;;;;;;;14.44;46.31;96318.44;4374802;32;20287;-56
2022/03/15 08:44:22;;;;;;;9.10;4.20;;;;;;;14.74;46.02;96311.78;4375156;32;20200;-55
2022/03/15 08:46:48;;;;;;;6.70;3.50;;;;;;;15.09;49.85;96319.13;4362682;32;20241;-56
2022/03/15 08:49:16;;;;;;;6.20;4.10;;;;;;;15.43;46.94;96324.03;4375159;32;20196;-56
2022/03/15 08:51:42;;;;;;;4.73;3.67;;;;;;;15.65;46.73;96331.38;4371908;32;20217;-56
2022/03/15 08:54:08;;;;;;;4.63;3.50;;;;;;;16.10;44.69;96329.56;4370404;32;20230;-56
2022/03/15 08:56:35;;;;;;;6.57;5.07;;;;;;;16.12;45.81;96334.63;4375874;32;20256;-52
2022/03/15 08:59:01;;;;;;;4.80;4.37;;;;;;;16.09;44.18;96327.19;4368658;32;20196;-59
2022/03/15 09:01:26;;;;;;;5.93;4.20;;;;;;;15.00;43.20;96323.56;4375629;32;20242;-57
2022/03/15 09:03:51;;;;;;;4.73;4.33;;;;;;;13.75;45.58;96323.44;4386811;32;20231;-58
2022/03/15 09:06:16;;;;;;;6.17;4.37;;;;;;;13.48;46.80;96327.84;4361427;32;20280;-58
2022/03/15 09:08:42;;;;;;;4.87;4.37;;;;;;;12.85;48.30;96325.34;4373062;32;20062;-59
2022/03/15 09:11:08;;;;;;;4.43;3.57;;;;;;;12.60;49.27;96318.41;4375454;32;20224;-59
2022/03/15 09:13:34;;;;;;;6.17;4.00;;;;;;;12.47;50.05;96317.16;4375018;32;20189;-59
2022/03/15 09:16:00;;;;;;;4.00;3.60;;;;;;;12.17;49.62;96304.94;4384096;32;20184;-60
2022/03/15 09:18:27;;;;;;;4.43;3.50;;;;;;;11.92;51.44;96297.94;4368448;32;20193;-59
2022/03/15 09:20:53;;;;;;;3.90;3.60;;;;;;;11.97;50.78;96292.59;4361844;32;20243;-57
2022/03/15 09:23:19;;;;;;;5.27;4.30;;;;;;;12.04;50.84;96292.28;4371575;32;20196;-58
2022/03/15 09:25:44;;;;;;;5.33;3.93;;;;;;;12.21;50.15;96281.25;4385053;32;20180;-57
2022/03/15 09:28:10;;;;;;;4.60;3.97;;;;;;;11.95;50.64;96275.31;4377639;32;20184;-58
2022/03/15 09:30:36;;;;;;;4.23;3.87;;;;;;;11.74;51.47;96279.19;4376094;32;20177;-57
2022/03/15 09:33:02;;;;;;;5.90;3.60;;;;;;;11.67;51.63;96280.28;4361553;32;20275;-57
2022/03/15 09:35:27;;;;;;;7.97;4.60;;;;;;;11.68;51.47;96275.75;4360074;32;20184;-60
2022/03/15 09:37:53;;;;;;;11.60;4.17;;;;;;;11.76;51.70;96283.19;4367736;32;20259;-54
2022/03/15 09:40:25;;;;;;;7.40;4.47;;;;;;;11.66;51.71;96293.84;4365488;32;20271;-56
2022/03/15 09:42:53;;;;;;;5.77;4.47;;;;;;;11.34;52.64;96287.13;4367208;32;20188;-60
2022/03/15 09:45:21;;;;;;;5.13;4.63;;;;;;;11.40;53.01;96289.75;4367725;32;20184;-59
2022/03/15 09:47:54;;;;;;;9.37;4.43;;;;;;;11.13;53.99;96290.16;4368736;32;20181;-59
2022/03/15 09:50:20;;;;;;;6.63;4.27;;;;;;;11.44;53.20;96280.94;4369118;32;20181;-60
2022/03/15 09:52:46;;;;;;;4.40;4.00;;;;;;;11.47;53.27;96277.75;4355267;32;20219;-59
2022/03/15 09:55:12;;;;;;;7.93;4.03;;;;;;;11.39;53.48;96272.22;4365612;32;20192;-59
2022/03/15 09:57:39;;;;;;;6.90;3.60;;;;;;;11.43;53.66;96276.69;4353999;32;20216;-59
2022/03/15 10:00:05;;;;;;;4.33;4.00;;;;;;;11.45;54.23;96271.91;4362974;32;20240;-59
2022/03/15 10:02:31;;;;;;;6.63;3.87;;;;;;;11.45;54.40;96271.12;4368747;32;20264;-59
2022/03/15 10:04:57;;;;;;;5.70;4.10;;;;;;;11.70;53.81;96263.78;4370615;32;20195;-57
2022/03/15 10:07:22;;;;;;;4.90;4.10;;;;;;;11.50;54.03;96268.44;4379107;32;20211;-59
2022/03/15 10:09:48;;;;;;;4.30;3.93;;;;;;;11.62;54.49;96255.62;4353397;32;20237;-59
2022/03/15 10:12:13;;;;;;;4.13;3.70;;;;;;;11.66;54.40;96248.66;4366731;32;20189;-60
2022/03/15 10:14:41;;;;;;;4.97;4.00;;;;;;;11.73;54.59;96254.47;4365762;32;20180;-59
2022/03/15 10:17:06;;;;;;;5.50;3.77;;;;;;;11.86;54.15;96261.03;4380067;32;20177;-59
2022/03/15 10:19:31;;;;;;;4.00;3.70;;;;;;;11.87;54.21;96259.97;4363370;32;20234;-59
2022/03/15 10:21:57;;;;;;;4.30;3.90;;;;;;;11.90;53.40;96257.53;4370566;32;20181;-59
2022/03/15 10:24:23;;;;;;;6.13;3.57;;;;;;;12.11;53.28;96247.53;4367324;32;20169;-59
2022/03/15 10:26:54;;;;;;;5.13;4.10;;;;;;;12.09;53.12;96244.34;4370909;32;20195;-58
2022/03/15 10:29:21;;;;;;;25.63;3.90;;;;;;;12.15;53.31;96253.09;4347091;32;20199;-60
2022/03/15 10:31:47;;;;;;;4.77;4.20;;;;;;;12.05;54.16;96248.66;4365788;32;20181;-61
2022/03/15 10:34:14;;;;;;;5.87;4.30;;;;;;;12.02;53.53;96250.00;4353727;32;20177;-61
2022/03/15 10:36:44;;;;;;;6.63;3.60;;;;;;;12.12;53.63;96238.47;4366267;32;20196;-58
2022/03/15 10:39:11;;;;;;;3.60;3.30;;;;;;;12.16;53.94;96238.72;4354753;32;20193;-60
2022/03/15 10:41:43;;;;;;;3.60;3.30;;;;;;;12.25;53.32;96245.81;4368109;32;20242;-60
2022/03/15 10:44:18;;;;;;;3.60;3.33;;;;;;;12.32;53.10;96242.81;4359146;32;20235;-59
2022/03/15 10:46:43;;;;;;;4.10;3.43;;;;;;;12.31;53.72;96236.69;4371968;32;20211;-60
2022/03/15 10:49:09;;;;;;;4.93;3.40;;;;;;;12.33;54.08;96239.09;4375644;32;20256;-58
2022/03/15 10:51:36;;;;;;;4.97;3.03;;;;;;;12.48;53.63;96240.78;4357403;32;20180;-57
2022/03/15 10:54:04;;;;;;;9.00;3.80;;;;;;;12.54;52.76;96229.81;4371885;32;20203;-59
2022/03/15 10:56:30;;;;;;;4.47;3.30;;;;;;;12.63;52.87;96237.97;4373912;32;20181;-57
2022/03/15 10:59:00;;;;;;;3.97;3.67;;;;;;;12.66;53.37;96237.41;4355743;32;20208;-58
2022/03/15 11:01:27;;;;;;;6.30;3.60;;;;;;;12.80;52.84;96243.63;4355243;32;20197;-59
2022/03/15 11:03:55;;;;;;;4.37;4.00;;;;;;;12.79;52.70;96234.06;4352048;32;20201;-56
2022/03/15 11:06:37;;;;;;;5.03;3.80;;;;;;;12.79;52.84;96230.59;4365885;32;20176;-57
2022/03/15 11:09:24;;;;;;;4.73;3.90;;;;;;;12.78;52.60;96226.34;4355605;32;20196;-57
2022/03/15 11:12:09;;;;;;;4.40;3.77;;;;;;;12.69;53.11;96218.19;4350495;32;20185;-58
2022/03/15 11:14:40;;;;;;;4.10;3.40;;;;;;;12.84;52.65;96199.41;4360503;32;20184;-57
2022/03/15 11:17:20;;;;;;;7.17;3.60;;;;;;;12.87;52.33;96188.16;4366689;32;20203;-57
2022/03/15 11:19:50;;;;;;;5.10;3.90;;;;;;;12.82;52.24;96188.22;4353952;32;20185;-57
2022/03/15 11:22:23;;;;;;;5.00;3.40;;;;;;;12.91;51.90;96175.06;4306688;32;20189;-56
2022/03/15 11:25:19;;;;;;;4.57;3.50;;;;;;;12.84;52.20;96179.97;4370918;32;20266;-58
2022/03/15 11:27:47;;;;;;;5.23;3.53;;;;;;;12.93;51.79;96184.34;4363364;32;20190;-57
2022/03/15 11:30:19;;;;;;;3.60;3.30;;;;;;;13.05;52.03;96189.28;4376534;32;20212;-57
2022/03/15 11:32:46;;;;;;;4.70;3.57;;;;;;;13.16;52.12;96189.94;4359370;32;20209;-57
2022/03/15 11:35:18;;;;;;;4.00;3.70;;;;;;;13.09;52.26;96196.38;4367713;32;20189;-57
2022/03/15 11:37:47;;;;;;;5.57;3.60;;;;;;;13.24;52.23;96189.31;4353310;32;20192;-57